Time;durP1;ratioP1;P1;durP2;ratioP2;P2;SDS_P1;SDS_P2;PMS_P1;PMS_P2;Temp;Humidity;BMP_temperature;BMP_pressure;BME280_temperature;BME280_humidity;BME280_pressure;Samples;Min_cycle;Max_cycle;Signal;HPM_P1;HPM_P2
2022/08/25 00:01:19;;;;;;;49.38;40.38;;;19.30;99.90;;;;;;5049077;28;20026;-83
2022/08/25 00:03:45;;;;;;;48.50;39.58;;;19.30;99.90;;;;;;5055177;28;20032;-83
2022/08/25 00:06:12;;;;;;;46.83;38.85;;;19.20;99.90;;;;;;5057110;28;20064;-82
2022/08/25 00:08:39;;;;;;;50.30;40.40;;;19.20;99.90;;;;;;5056951;28;20018;-83
2022/08/25 00:11:11;;;;;;;47.95;40.10;;;19.20;1.00;;;;;;5057404;28;20141;-82
2022/08/25 00:13:38;;;;;;;52.60;42.13;;;19.20;1.00;;;;;;5057182;28;20263;-82
2022/08/25 00:16:04;;;;;;;50.03;40.25;;;19.10;1.00;;;;;;5047435;28;20041;-82
2022/08/25 00:18:30;;;;;;;52.25;42.13;;;19.10;1.00;;;;;;5052270;28;20021;-82
2022/08/25 00:20:55;;;;;;;52.17;41.83;;;19.10;1.00;;;;;;5056189;28;20005;-83
2022/08/25 00:23:21;;;;;;;50.35;41.28;;;18.90;1.00;;;;;;5056610;28;20052;-83
2022/08/25 00:25:47;;;;;;;52.13;43.30;;;19.00;1.00;;;;;;5057209;28;20041;-83
2022/08/25 00:28:15;;;;;;;54.95;44.10;;;18.90;1.00;;;;;;5056634;28;20037;-82
2022/08/25 00:30:41;;;;;;;54.72;42.33;;;18.80;1.00;;;;;;5037221;28;20024;-82
2022/08/25 00:33:07;;;;;;;53.67;43.90;;;18.90;1.00;;;;;;5048059;28;20038;-83
2022/08/25 00:35:33;;;;;;;56.30;43.25;;;18.80;1.00;;;;;;5056519;28;20077;-83
2022/08/25 00:37:59;;;;;;;53.97;43.13;;;18.90;1.00;;;;;;5056139;28;20032;-83
2022/08/25 00:40:26;;;;;;;57.00;45.08;;;18.80;1.00;;;;;;5056406;28;20073;-82
2022/08/25 00:42:52;;;;;;;56.50;42.42;;;18.80;1.00;;;;;;5055473;28;20072;-82
2022/08/25 00:45:18;;;;;;;57.70;44.20;;;18.70;1.00;;;;;;5052571;28;20012;-82
2022/08/25 00:47:43;;;;;;;57.00;44.20;;;18.80;1.00;;;;;;5040708;28;20100;-82
2022/08/25 00:50:10;;;;;;;51.60;42.08;;;18.70;1.00;;;;;;5050505;28;20037;-82
2022/08/25 00:52:44;;;;;;;49.13;40.20;;;18.90;1.00;;;;;;5054890;28;20041;-83
2022/08/25 00:55:20;;;;;;;47.85;38.88;;;18.70;1.00;;;;;;5055866;28;20049;-83
2022/08/25 00:57:51;;;;;;;45.58;36.95;;;18.70;1.00;;;;;;5055162;28;20037;-82
2022/08/25 01:00:38;;;;;;;42.17;35.63;;;18.70;1.00;;;;;;5054114;28;20052;-83
2022/08/25 01:03:04;;;;;;;44.22;36.60;;;18.70;1.00;;;;;;5054348;28;20089;-82
2022/08/25 01:05:30;;;;;;;44.38;36.17;;;18.70;1.00;;;;;;5051416;28;20029;-82
2022/08/25 01:07:58;;;;;;;42.67;35.03;;;18.70;1.00;;;;;;5039513;28;20024;-82
2022/08/25 01:10:26;;;;;;;40.17;34.05;;;18.80;1.00;;;;;;5035223;28;20045;-83
2022/08/25 01:12:57;;;;;;;40.38;34.75;;;18.70;1.00;;;;;;5039509;28;20683;-82
2022/08/25 01:15:23;;;;;;;41.20;33.45;;;18.60;1.00;;;;;;5050484;28;20017;-82
2022/08/25 01:17:51;;;;;;;39.15;33.63;;;18.60;1.00;;;;;;5048759;28;20064;-82
2022/08/25 01:20:19;;;;;;;43.80;34.90;;;18.60;1.00;;;;;;5047649;28;20062;-82
2022/08/25 01:22:46;;;;;;;37.58;32.75;;;18.50;1.00;;;;;;5042041;28;20027;-82
2022/08/25 01:25:38;;;;;;;40.33;31.98;;;18.50;1.00;;;;;;5048187;28;20028;-82
2022/08/25 01:28:05;;;;;;;41.47;33.25;;;18.40;1.00;;;;;;5055529;28;20021;-83
2022/08/25 01:30:38;;;;;;;36.83;32.75;;;18.40;1.00;;;;;;5042018;28;20022;-82
2022/08/25 01:33:06;;;;;;;39.17;31.88;;;18.30;1.00;;;;;;5039709;28;20033;-82
2022/08/25 01:35:32;;;;;;;38.40;31.95;;;18.40;1.00;;;;;;5042522;28;20097;-82
2022/08/25 01:38:00;;;;;;;38.70;31.83;;;18.30;1.00;;;;;;5038111;28;21057;-82
2022/08/25 01:40:26;;;;;;;38.58;32.65;;;18.30;99.90;;;;;;5040731;28;20052;-82
2022/08/25 01:43:05;;;;;;;34.95;30.27;;;18.30;99.90;;;;;;5042117;28;20477;-82
2022/08/25 01:45:32;;;;;;;37.37;31.10;;;18.20;1.00;;;;;;5040549;28;20081;-82
2022/08/25 01:47:57;;;;;;;37.67;32.17;;;18.30;99.90;;;;;;5044233;28;20285;-83
2022/08/25 01:50:23;;;;;;;38.55;31.95;;;18.30;99.90;;;;;;5050768;28;20025;-82
2022/08/25 01:52:54;;;;;;;38.03;32.33;;;18.10;99.90;;;;;;5049040;28;20022;-82
2022/08/25 01:55:20;;;;;;;37.50;31.45;;;18.20;99.90;;;;;;5042133;28;20075;-83
2022/08/25 01:57:46;;;;;;;41.92;32.45;;;18.10;1.00;;;;;;5044668;28;20046;-82
2022/08/25 02:00:13;;;;;;;37.50;31.88;;;18.10;99.90;;;;;;5047628;28;20022;-83
2022/08/25 02:02:41;;;;;;;36.10;31.52;;;18.00;99.90;;;;;;5053008;28;20112;-83
2022/08/25 02:05:12;;;;;;;36.67;32.03;;;17.90;1.00;;;;;;5054501;28;20026;-83
2022/08/25 02:07:39;;;;;;;36.75;31.52;;;17.90;99.90;;;;;;5052992;28;20014;-82
2022/08/25 02:10:06;;;;;;;39.20;31.30;;;17.80;99.90;;;;;;5053899;28;20009;-83
2022/08/25 02:12:32;;;;;;;36.83;32.05;;;17.80;99.90;;;;;;5054333;28;20013;-83
2022/08/25 02:15:00;;;;;;;36.17;31.35;;;17.70;99.90;;;;;;5036482;28;20029;-82
2022/08/25 02:17:27;;;;;;;37.03;31.75;;;18.00;99.90;;;;;;5052356;28;20590;-83
2022/08/25 02:19:54;;;;;;;41.25;32.75;;;17.70;99.90;;;;;;5047352;28;20163;-82
2022/08/25 02:22:20;;;;;;;36.58;31.48;;;17.90;99.90;;;;;;5041286;28;20388;-83
2022/08/25 02:24:46;;;;;;;38.97;32.50;;;17.80;1.00;;;;;;5045351;28;20096;-82
2022/08/25 02:27:12;;;;;;;35.05;31.23;;;17.90;99.90;;;;;;5048917;28;20021;-82
2022/08/25 02:29:38;;;;;;;38.70;31.73;;;17.80;99.90;;;;;;5041713;28;20464;-82
2022/08/25 02:32:04;;;;;;;37.97;31.70;;;18.00;99.90;;;;;;5037587;28;20022;-83
2022/08/25 02:34:30;;;;;;;36.60;31.45;;;18.10;99.90;;;;;;5038923;28;20377;-83
2022/08/25 02:36:55;;;;;;;35.33;29.27;;;17.90;99.90;;;;;;5040577;28;20388;-83
2022/08/25 02:39:21;;;;;;;32.90;29.23;;;17.90;99.90;;;;;;5039445;28;20049;-83
2022/08/25 02:41:46;;;;;;;33.65;28.85;;;17.90;99.90;;;;;;5038122;28;20120;-83
2022/08/25 02:44:12;;;;;;;36.15;27.73;;;17.80;99.90;;;;;;5038493;28;20029;-83
2022/08/25 02:46:38;;;;;;;36.17;28.67;;;17.80;99.90;;;;;;5040726;28;20017;-82
2022/08/25 02:49:05;;;;;;;35.67;27.95;;;17.70;99.90;;;;;;5042229;28;20346;-83
2022/08/25 02:51:30;;;;;;;31.35;27.05;;;17.80;99.90;;;;;;5041409;28;20026;-82
2022/08/25 02:53:58;;;;;;;29.95;25.42;;;17.90;99.90;;;;;;5040641;28;20075;-82
2022/08/25 02:56:24;;;;;;;30.33;25.92;;;17.70;99.90;;;;;;5041053;28;20100;-82
2022/08/25 02:58:50;;;;;;;29.55;24.77;;;17.60;99.90;;;;;;5037845;28;20045;-82
2022/08/25 03:01:16;;;;;;;28.05;24.40;;;17.70;99.90;;;;;;5038594;28;20341;-82
2022/08/25 03:03:43;;;;;;;25.45;22.85;;;17.70;99.90;;;;;;5039129;28;20041;-82
2022/08/25 03:06:11;;;;;;;26.95;24.25;;;17.70;99.90;;;;;;5037833;28;20029;-83
2022/08/25 03:08:38;;;;;;;30.63;25.42;;;17.80;99.90;;;;;;5036870;28;20026;-83
2022/08/25 03:11:04;;;;;;;28.75;24.52;;;17.50;99.90;;;;;;5037316;28;20488;-82
2022/08/25 03:13:31;;;;;;;26.63;23.25;;;17.40;99.90;;;;;;5039277;28;20466;-82
2022/08/25 03:16:00;;;;;;;25.40;22.88;;;17.40;99.90;;;;;;5039748;28;20021;-82
2022/08/25 03:18:27;;;;;;;25.48;22.75;;;17.50;99.90;;;;;;5041540;28;20044;-82
2022/08/25 03:20:52;;;;;;;24.35;21.75;;;17.40;99.90;;;;;;5024732;28;20040;-82
2022/08/25 03:23:18;;;;;;;24.70;21.83;;;17.30;99.90;;;;;;5025634;28;20053;-82
2022/08/25 03:28:31;;;;;;;24.33;21.15;;;17.50;99.90;;;;;;5049377;28;20120;-82
2022/08/25 03:30:59;;;;;;;23.30;20.05;;;17.50;99.90;;;;;;5039353;28;20021;-82
2022/08/25 03:33:26;;;;;;;22.60;20.02;;;17.40;99.90;;;;;;5021651;28;20112;-82
2022/08/25 03:35:52;;;;;;;22.27;19.98;;;17.40;99.90;;;;;;5028645;28;20744;-83
2022/08/25 03:38:18;;;;;;;21.85;18.17;;;17.70;99.90;;;;;;5041518;28;20045;-82
2022/08/25 03:40:43;;;;;;;20.67;18.58;;;17.70;99.90;;;;;;5039681;28;20037;-82
2022/08/25 03:43:09;;;;;;;20.92;17.95;;;17.40;99.90;;;;;;5038734;28;20041;-82
2022/08/25 03:45:40;;;;;;;19.92;17.83;;;17.30;99.90;;;;;;5037923;28;20021;-82
2022/08/25 03:48:05;;;;;;;22.95;17.30;;;17.50;99.90;;;;;;5040151;28;20113;-82
2022/08/25 03:50:31;;;;;;;18.60;16.65;;;17.50;99.90;;;;;;5038355;28;20064;-83
2022/08/25 03:52:57;;;;;;;18.65;16.70;;;17.40;99.90;;;;;;5035616;28;20029;-83
2022/08/25 03:55:24;;;;;;;19.15;17.13;;;17.40;99.90;;;;;;5035736;28;20097;-83
2022/08/25 03:57:51;;;;;;;21.30;16.48;;;17.30;99.90;;;;;;5035324;28;20029;-82
2022/08/25 04:00:17;;;;;;;17.52;15.70;;;17.40;99.90;;;;;;5035979;28;20025;-83
2022/08/25 04:02:42;;;;;;;17.25;15.38;;;17.40;99.90;;;;;;5035302;28;20029;-82
2022/08/25 04:05:08;;;;;;;18.83;15.43;;;17.30;99.90;;;;;;5035461;28;20042;-82
2022/08/25 04:07:34;;;;;;;17.67;15.75;;;17.30;99.90;;;;;;5035601;28;20354;-82
2022/08/25 04:09:59;;;;;;;16.90;14.30;;;17.30;99.90;;;;;;5037435;28;20025;-82
2022/08/25 04:12:25;;;;;;;15.95;14.25;;;17.30;99.90;;;;;;5035502;28;20033;-82
2022/08/25 04:14:50;;;;;;;15.43;13.80;;;17.30;99.90;;;;;;5035452;28;20032;-82
2022/08/25 04:17:17;;;;;;;16.67;14.18;;;17.40;99.90;;;;;;5035414;28;20075;-82
2022/08/25 04:19:43;;;;;;;14.55;13.07;;;17.60;99.90;;;;;;5035622;28;20061;-82
2022/08/25 04:22:08;;;;;;;14.50;13.00;;;17.40;99.90;;;;;;5035617;28;20064;-82
2022/08/25 04:24:34;;;;;;;14.55;13.10;;;17.50;99.90;;;;;;5000197;28;20018;-82
2022/08/25 04:27:00;;;;;;;14.68;13.07;;;17.50;99.90;;;;;;5040920;28;20608;-82
2022/08/25 04:29:25;;;;;;;15.93;12.48;;;17.40;99.90;;;;;;5023532;28;20100;-82
2022/08/25 04:31:54;;;;;;;13.68;12.32;;;17.50;99.90;;;;;;5015396;28;20029;-82
2022/08/25 04:34:21;;;;;;;13.50;12.10;;;17.40;99.90;;;;;;5016241;28;20034;-81
2022/08/25 04:36:49;;;;;;;14.23;11.90;;;17.50;99.90;;;;;;5017927;28;20080;-82
2022/08/25 04:39:15;;;;;;;13.20;11.80;;;17.40;99.90;;;;;;5035189;28;20041;-82
2022/08/25 04:41:40;;;;;;;13.27;11.45;;;17.40;99.90;;;;;;5035898;28;20699;-82
2022/08/25 04:44:06;;;;;;;12.77;11.55;;;17.30;99.90;;;;;;5034763;28;20454;-82
2022/08/25 04:46:33;;;;;;;11.48;10.10;;;17.40;99.90;;;;;;5035211;28;20030;-82
2022/08/25 04:49:00;;;;;;;12.05;10.18;;;17.40;99.90;;;;;;5036485;28;20049;-82
2022/08/25 04:51:31;;;;;;;12.85;10.73;;;17.40;99.90;;;;;;5039242;28;20021;-82
2022/08/25 04:54:01;;;;;;;12.32;10.65;;;17.40;99.90;;;;;;5036649;28;20017;-82
2022/08/25 04:56:28;;;;;;;12.98;10.40;;;17.40;99.90;;;;;;5037850;28;20021;-82
2022/08/25 04:58:55;;;;;;;14.90;9.93;;;17.40;99.90;;;;;;5036140;28;20032;-83
2022/08/25 05:01:24;;;;;;;12.20;10.18;;;17.40;99.90;;;;;;5038857;28;20107;-82
2022/08/25 05:03:56;;;;;;;12.73;10.10;;;17.60;99.90;;;;;;5035307;28;20397;-81
2022/08/25 05:06:22;;;;;;;10.45;9.45;;;17.60;99.90;;;;;;5034258;28;20120;-82
2022/08/25 05:08:48;;;;;;;10.70;9.60;;;17.70;99.90;;;;;;5034235;28;20025;-82
2022/08/25 05:11:16;;;;;;;11.07;9.85;;;17.70;99.90;;;;;;5034576;28;20028;-82
2022/08/25 05:13:43;;;;;;;11.10;9.35;;;17.70;99.90;;;;;;5014476;28;20715;-81
2022/08/25 05:16:09;;;;;;;10.05;8.73;;;17.70;99.90;;;;;;4997120;28;20093;-82
2022/08/25 05:18:35;;;;;;;9.75;8.75;;;17.80;99.90;;;;;;5014593;28;20026;-82
2022/08/25 05:21:03;;;;;;;11.00;9.02;;;17.80;99.90;;;;;;5019571;28;20389;-82
2022/08/25 05:23:29;;;;;;;10.68;9.75;;;18.00;99.90;;;;;;5034009;28;20037;-81
2022/08/25 05:25:55;;;;;;;10.13;9.10;;;18.00;99.90;;;;;;5034255;28;20369;-82
2022/08/25 05:28:20;;;;;;;9.93;8.60;;;17.90;99.90;;;;;;5034706;28;20017;-82
2022/08/25 05:30:49;;;;;;;10.13;8.90;;;18.00;99.90;;;;;;5034260;28;20382;-82
2022/08/25 05:33:15;;;;;;;9.88;8.95;;;18.10;99.90;;;;;;5041078;28;20041;-82
2022/08/25 05:35:41;;;;;;;9.10;8.20;;;18.30;99.90;;;;;;5051780;28;20017;-80
2022/08/25 05:38:07;;;;;;;9.75;8.75;;;18.30;99.90;;;;;;5053392;28;20049;-81
2022/08/25 05:40:33;;;;;;;10.73;9.15;;;18.40;99.90;;;;;;5043721;28;20028;-81
2022/08/25 05:42:58;;;;;;;8.60;7.70;;;20.00;99.90;;;;;;5045005;28;20055;-80
2022/08/25 05:45:24;;;;;;;9.32;7.65;;;22.20;99.90;;;;;;5045221;28;20018;-79
2022/08/25 05:47:50;;;;;;;9.95;7.63;;;22.20;99.90;;;;;;5046971;28;20032;-79
2022/08/25 05:50:16;;;;;;;11.15;8.07;;;20.60;99.90;;;;;;5049444;28;20063;-81
2022/08/25 05:52:43;;;;;;;12.23;7.55;;;20.10;99.90;;;;;;5051410;28;20044;-80
2022/08/25 05:55:09;;;;;;;11.98;7.25;;;19.80;99.90;;;;;;5050923;28;20047;-81
2022/08/25 05:57:35;;;;;;;7.82;7.03;;;19.70;99.90;;;;;;5039268;28;20037;-81
2022/08/25 06:00:01;;;;;;;8.68;7.32;;;19.70;99.90;;;;;;5048570;28;20025;-81
2022/08/25 06:02:47;;;;;;;8.98;6.90;;;19.70;99.90;;;;;;5052244;28;20030;-81
2022/08/25 06:05:15;;;;;;;10.05;6.93;;;19.80;99.90;;;;;;5053080;28;20006;-81
2022/08/25 06:07:41;;;;;;;7.82;6.55;;;19.80;99.90;;;;;;5051739;28;20013;-81
2022/08/25 06:10:10;;;;;;;10.13;6.82;;;19.80;99.90;;;;;;5042675;28;20024;-82
2022/08/25 06:12:37;;;;;;;8.77;7.25;;;20.00;99.90;;;;;;5054197;28;20018;-82
2022/08/25 06:15:04;;;;;;;8.00;7.20;;;20.20;99.90;;;;;;5054940;28;20021;-82
2022/08/25 06:17:30;;;;;;;8.23;6.22;;;20.10;99.90;;;;;;5054887;28;20044;-82
2022/08/25 06:19:55;;;;;;;8.90;6.32;;;20.20;99.90;;;;;;5055030;28;20047;-80
2022/08/25 06:22:21;;;;;;;7.30;6.53;;;20.30;99.90;;;;;;5052881;28;20038;-81
2022/08/25 06:24:47;;;;;;;8.25;6.85;;;20.60;99.90;;;;;;5052290;28;20568;-81
2022/08/25 06:27:13;;;;;;;6.55;5.93;;;20.60;99.90;;;;;;5049790;28;20061;-81
2022/08/25 06:29:39;;;;;;;8.50;6.40;;;20.60;99.90;;;;;;5051884;28;20029;-81
2022/08/25 06:32:05;;;;;;;7.97;6.70;;;20.80;99.90;;;;;;5048740;28;20105;-81
2022/08/25 06:34:31;;;;;;;8.30;6.57;;;20.90;99.90;;;;;;5048196;28;20041;-82
2022/08/25 06:36:57;;;;;;;7.95;6.43;;;21.10;99.90;;;;;;5050537;28;20025;-82
2022/08/25 06:39:23;;;;;;;7.70;6.38;;;21.30;99.90;;;;;;5043935;28;20141;-81
2022/08/25 06:41:55;;;;;;;7.93;6.47;;;21.60;99.90;;;;;;5045278;28;20033;-82
2022/08/25 06:44:22;;;;;;;7.22;6.35;;;25.30;99.90;;;;;;5050977;28;20025;-82
2022/08/25 06:46:49;;;;;;;9.82;6.50;;;26.80;99.90;;;;;;5038164;28;20025;-81
2022/08/25 06:49:15;;;;;;;8.05;5.82;;;29.20;99.90;;;;;;5056607;28;20021;-82
2022/08/25 06:51:41;;;;;;;8.00;5.85;;;29.00;99.90;;;;;;5053420;28;20311;-82
2022/08/25 06:54:09;;;;;;;7.43;5.70;;;30.30;99.90;;;;;;5050969;28;20029;-82
2022/08/25 06:56:35;;;;;;;6.95;5.40;;;31.30;99.90;;;;;;5052111;28;20089;-82
2022/08/25 06:59:05;;;;;;;6.47;5.28;;;31.70;99.90;;;;;;5054810;28;20009;-82
2022/08/25 07:01:32;;;;;;;7.63;5.43;;;32.60;99.90;;;;;;5056774;28;20037;-82
2022/08/25 07:04:00;;;;;;;8.88;5.53;;;33.90;99.90;;;;;;5055807;28;20112;-83
2022/08/25 07:06:29;;;;;;;6.65;5.20;;;32.70;99.90;;;;;;5054515;28;20029;-83
2022/08/25 07:08:55;;;;;;;6.85;5.50;;;34.40;99.90;;;;;;5051927;28;20013;-82
2022/08/25 07:11:21;;;;;;;8.32;4.90;;;33.60;99.90;;;;;;5053943;28;20026;-80
2022/08/25 07:13:47;;;;;;;6.55;4.78;;;35.00;99.90;;;;;;5046230;28;20030;-82
2022/08/25 07:16:14;;;;;;;7.35;5.13;;;37.50;99.90;;;;;;5055269;28;20025;-82
2022/08/25 07:18:40;;;;;;;7.13;4.50;;;38.30;99.90;;;;;;5046140;28;20021;-82
2022/08/25 07:21:06;;;;;;;5.22;4.72;;;39.50;99.90;;;;;;5039475;28;20025;-82
2022/08/25 07:23:32;;;;;;;5.65;4.70;;;38.10;99.90;;;;;;5037501;28;20061;-82
2022/08/25 07:26:10;;;;;;;7.25;4.53;;;38.70;99.90;;;;;;5043002;28;20025;-82
2022/08/25 07:28:37;;;;;;;6.72;4.38;;;37.40;99.90;;;;;;5047980;28;20024;-81
2022/08/25 07:31:03;;;;;;;4.97;4.30;;;39.50;99.90;;;;;;5049174;28;20014;-82
2022/08/25 07:33:29;;;;;;;6.32;4.47;;;41.60;98.30;;;;;;5055255;28;20048;-80
2022/08/25 07:35:55;;;;;;;6.22;3.90;;;41.30;94.10;;;;;;5056168;28;20429;-80
2022/08/25 07:38:21;;;;;;;6.05;4.25;;;40.80;92.70;;;;;;5049756;28;20025;-80
2022/08/25 07:40:53;;;;;;;7.07;4.00;;;40.70;92.40;;;;;;5054657;28;20032;-79
2022/08/25 07:43:20;;;;;;;6.43;4.65;;;40.90;90.80;;;;;;5053707;28;20043;-78
2022/08/25 07:45:46;;;;;;;4.65;4.13;;;38.40;88.60;;;;;;5052736;28;20045;-80
2022/08/25 07:48:12;;;;;;;4.90;4.05;;;38.90;88.70;;;;;;5044298;28;20022;-81
2022/08/25 07:50:46;;;;;;;4.63;4.20;;;38.30;90.40;;;;;;5039144;28;20030;-81
2022/08/25 07:53:14;;;;;;;6.35;3.97;;;40.40;88.80;;;;;;5038790;28;20107;-81
2022/08/25 07:55:41;;;;;;;6.20;3.55;;;38.40;83.80;;;;;;5037313;28;20022;-81
2022/08/25 07:58:08;;;;;;;5.20;3.83;;;39.80;83.10;;;;;;5038135;28;20056;-84
2022/08/25 08:00:36;;;;;;;4.53;3.42;;;39.10;83.20;;;;;;5039693;28;20017;-81
2022/08/25 08:03:07;;;;;;;6.72;4.05;;;38.10;83.40;;;;;;5030079;28;20064;-81
2022/08/25 08:05:33;;;;;;;4.32;3.90;;;35.40;86.40;;;;;;5037440;28;20101;-81
2022/08/25 08:08:01;;;;;;;4.10;3.80;;;38.70;85.20;;;;;;5038629;28;20429;-81
2022/08/25 08:10:26;;;;;;;3.50;3.20;;;37.00;85.90;;;;;;5039784;28;20022;-81
2022/08/25 08:12:53;;;;;;;4.15;3.70;;;39.20;86.90;;;;;;5038565;28;20032;-81
2022/08/25 08:15:19;;;;;;;4.75;3.92;;;37.40;80.90;;;;;;5039618;28;20029;-81
2022/08/25 08:17:45;;;;;;;4.93;3.22;;;38.10;81.20;;;;;;5041678;28;20036;-81
2022/08/25 08:20:12;;;;;;;3.97;3.58;;;40.30;82.80;;;;;;5040863;28;20057;-80
2022/08/25 08:22:41;;;;;;;6.85;3.38;;;40.50;80.20;;;;;;5041816;28;20393;-80
2022/08/25 08:25:09;;;;;;;5.22;3.30;;;38.40;78.40;;;;;;5051050;28;20022;-81
2022/08/25 08:27:35;;;;;;;3.80;3.50;;;39.50;78.80;;;;;;5048068;28;20087;-82
2022/08/25 08:30:01;;;;;;;5.10;3.67;;;35.70;77.20;;;;;;5044664;28;20018;-81
2022/08/25 08:32:27;;;;;;;4.88;3.53;;;37.40;82.00;;;;;;5041629;28;20084;-81
2022/08/25 08:34:52;;;;;;;6.03;3.55;;;37.90;78.70;;;;;;5038615;28;20030;-82
2022/08/25 08:37:19;;;;;;;5.95;3.72;;;37.30;76.90;;;;;;5024954;28;20048;-83
2022/08/25 08:39:44;;;;;;;5.93;3.45;;;39.30;76.90;;;;;;5048254;28;20041;-82
2022/08/25 08:42:52;;;;;;;5.57;3.83;;;40.60;77.00;;;;;;5048248;28;20053;-82
2022/08/25 08:45:34;;;;;;;4.82;3.55;;;38.10;72.90;;;;;;5048506;28;20064;-82
2022/08/25 08:48:23;;;;;;;4.47;3.63;;;39.60;77.00;;;;;;5050619;28;20025;-83
2022/08/25 08:51:04;;;;;;;;;;;39.50;74.30;;;;;;5038410;28;20040;-83
2022/08/25 08:53:55;;;;;;;5.65;3.42;;;37.90;72.50;;;;;;5036989;28;19912;-82
2022/08/25 08:56:28;;;;;;;4.75;3.35;;;41.60;77.70;;;;;;5033834;28;20037;-82
2022/08/25 08:59:03;;;;;;;3.60;3.33;;;39.70;71.60;;;;;;5036705;28;20100;-83
2022/08/25 09:01:34;;;;;;;3.95;3.28;;;38.80;72.10;;;;;;5051702;28;20001;-81
2022/08/25 09:04:12;;;;;;;5.32;3.28;;;38.10;71.00;;;;;;5033294;28;20041;-82
2022/08/25 09:06:47;;;;;;;5.63;3.10;;;41.20;70.00;;;;;;5034903;28;20056;-83
2022/08/25 10:58:51;;;;;;;2.58;2.03;;;42.20;36.30;;;;;;5618302;24;20050;-77
2022/08/25 11:01:36;;;;;;;5.65;1.85;;;42.90;35.30;;;;;;4846350;29;20041;-82
2022/08/25 11:04:07;;;;;;;3.60;1.90;;;39.70;35.30;;;;;;4846103;29;20085;-80
2022/08/25 11:07:01;;;;;;;1.83;1.67;;;38.20;36.90;;;;;;4850192;29;20034;-80
2022/08/25 11:09:32;;;;;;;3.45;1.95;;;38.40;38.80;;;;;;4845220;29;20030;-81
2022/08/25 11:12:03;;;;;;;2.03;1.58;;;36.80;38.20;;;;;;4848287;29;20030;-81
2022/08/25 11:14:48;;;;;;;4.68;1.88;;;35.00;38.00;;;;;;4847095;29;20031;-81
2022/08/25 11:17:29;;;;;;;4.82;1.90;;;35.10;40.50;;;;;;4849022;29;20015;-81
2022/08/25 11:19:59;;;;;;;4.00;1.70;;;34.40;42.40;;;;;;4849219;29;20018;-81
2022/08/25 11:22:34;;;;;;;2.90;1.73;;;34.10;41.70;;;;;;4845577;29;20050;-81
2022/08/25 11:25:18;;;;;;;3.15;1.73;;;33.60;40.00;;;;;;4839214;29;20033;-80
2022/08/25 11:27:56;;;;;;;2.90;2.00;;;33.50;41.90;;;;;;4854734;29;20086;-81
2022/08/25 11:30:22;;;;;;;3.17;1.52;;;33.50;44.00;;;;;;4846218;29;20031;-82
2022/08/25 11:32:50;;;;;;;4.07;2.03;;;34.00;43.20;;;;;;4851372;29;20017;-81
2022/08/25 11:35:29;;;;;;;5.15;1.85;;;33.60;42.10;;;;;;4845122;29;20042;-82
2022/08/25 11:38:29;;;;;;;4.93;1.75;;;33.40;42.70;;;;;;4845815;29;20071;-81
2022/08/25 11:41:04;;;;;;;2.10;1.80;;;34.00;43.90;;;;;;4844324;29;20038;-81
2022/08/25 11:44:06;;;;;;;3.72;1.92;;;34.00;44.00;;;;;;4843912;29;20045;-81
2022/08/25 11:47:00;;;;;;;3.25;1.92;;;33.50;44.20;;;;;;4845974;29;20086;-79
2022/08/25 11:49:36;;;;;;;4.03;1.90;;;33.30;43.40;;;;;;4847533;29;20031;-81
2022/08/25 11:52:03;;;;;;;1.88;1.73;;;33.60;43.80;;;;;;4847905;29;20069;-82
2022/08/25 11:54:41;;;;;;;3.70;1.95;;;33.10;43.70;;;;;;4848257;29;20086;-81
2022/08/25 11:57:15;;;;;;;4.25;1.88;;;33.60;44.60;;;;;;4848822;29;20050;-81
2022/08/25 11:59:54;;;;;;;2.97;1.90;;;33.20;45.00;;;;;;4843609;29;20031;-81
2022/08/25 12:02:47;;;;;;;2.95;2.03;;;33.60;45.20;;;;;;4828004;29;20074;-81
2022/08/25 12:05:15;;;;;;;4.22;1.95;;;33.40;43.90;;;;;;4831554;29;20035;-80
2022/08/25 12:08:37;;;;;;;2.10;2.00;;;33.30;44.60;;;;;;4830519;29;20035;-81
2022/08/25 12:10:55;;;;;;;2.08;1.98;;;34.10;44.70;;;;;;4827047;29;20022;-81
2022/08/25 12:13:27;;;;;;;3.78;2.00;;;33.80;44.40;;;;;;4828956;29;20167;-81
2022/08/25 12:15:57;;;;;;;2.75;1.90;;;33.70;44.30;;;;;;4830200;29;20052;-81
2022/08/25 12:18:26;;;;;;;6.18;2.10;;;32.70;44.10;;;;;;4830350;29;20030;-80
2022/08/25 12:20:52;;;;;;;2.20;2.00;;;33.40;45.20;;;;;;4830910;29;20027;-80
2022/08/25 12:24:02;;;;;;;2.53;2.10;;;33.40;45.60;;;;;;4831295;29;20038;-80
2022/08/25 12:26:47;;;;;;;2.33;1.90;;;32.90;45.50;;;;;;4827214;29;20035;-81
2022/08/25 12:29:20;;;;;;;3.38;2.10;;;33.40;45.30;;;;;;4828593;29;20015;-80
2022/08/25 12:32:12;;;;;;;3.92;2.30;;;33.60;46.60;;;;;;4829294;29;20039;-81
2022/08/25 12:35:24;;;;;;;2.08;1.90;;;33.30;45.10;;;;;;4829308;29;20033;-81
2022/08/25 12:38:12;;;;;;;3.00;2.25;;;33.00;45.80;;;;;;4826743;29;20023;-81
2022/08/25 12:41:09;;;;;;;3.67;2.28;;;32.90;45.40;;;;;;4829980;29;20019;-81
2022/08/25 12:43:39;;;;;;;4.70;2.30;;;33.60;47.10;;;;;;4831296;29;20042;-80
2022/08/25 12:46:26;;;;;;;2.58;2.33;;;34.00;46.30;;;;;;4829048;29;20038;-82
2022/08/25 12:49:13;;;;;;;2.60;2.15;;;33.40;46.00;;;;;;4829234;29;20094;-82
2022/08/25 12:51:39;;;;;;;2.53;2.30;;;33.50;45.90;;;;;;4825961;29;20082;-82
2022/08/25 12:54:24;;;;;;;2.83;1.95;;;33.40;46.00;;;;;;4829144;29;20022;-81
2022/08/25 12:56:59;;;;;;;2.80;2.60;;;33.80;46.10;;;;;;4827873;29;20026;-81
2022/08/25 12:59:40;;;;;;;2.83;2.40;;;33.30;46.20;;;;;;4834131;29;20034;-81
2022/08/25 13:02:32;;;;;;;6.68;2.47;;;33.80;47.40;;;;;;4847178;29;20086;-81
2022/08/25 13:05:23;;;;;;;3.00;2.30;;;33.80;46.60;;;;;;4836670;29;20042;-80
2022/08/25 13:08:32;;;;;;;3.30;2.30;;;34.10;46.60;;;;;;4833622;29;20018;-81
2022/08/25 13:11:03;;;;;;;;;;;34.00;47.30;;;;;;4831831;29;20033;-82
2022/08/25 13:13:38;;;;;;;2.97;2.20;;;33.30;45.90;;;;;;4835457;29;19905;-81
2022/08/25 13:16:26;;;;;;;3.80;2.30;;;33.30;46.00;;;;;;4822999;29;20035;-80
2022/08/25 13:18:52;;;;;;;3.95;2.42;;;33.80;47.00;;;;;;4837888;29;20031;-81
2022/08/25 13:21:29;;;;;;;4.25;2.35;;;34.10;48.20;;;;;;4828189;29;20011;-82
2022/08/25 13:23:57;;;;;;;4.82;2.25;;;33.90;46.30;;;;;;4827789;29;20098;-82
2022/08/25 13:26:32;;;;;;;6.47;2.40;;;33.20;46.30;;;;;;4828555;29;20039;-81
2022/08/25 13:29:02;;;;;;;3.75;2.40;;;34.00;47.20;;;;;;4828441;29;20030;-82
2022/08/25 13:31:28;;;;;;;2.40;2.22;;;33.20;46.00;;;;;;4832812;29;20023;-82
2022/08/25 13:34:04;;;;;;;11.00;2.60;;;33.20;47.50;;;;;;4839872;29;20082;-82
2022/08/25 13:39:32;;;;;;;5.90;2.67;;;32.80;46.50;;;;;;4834603;29;20047;-81
2022/08/25 13:41:58;;;;;;;4.40;2.70;;;32.70;47.20;;;;;;4839213;29;20026;-82
2022/08/25 13:44:26;;;;;;;4.70;2.45;;;32.90;47.50;;;;;;4833596;29;20300;-81
2022/08/25 13:47:07;;;;;;;3.75;2.63;;;32.90;47.40;;;;;;4827953;29;20023;-81
2022/08/25 13:49:36;;;;;;;2.67;2.47;;;33.10;47.60;;;;;;4827552;29;20271;-81
2022/08/25 13:52:02;;;;;;;;;;;33.20;51.60;;;;;;4827624;29;20042;-82
2022/08/25 13:54:39;;;;;;;4.22;2.58;;;33.20;48.00;;;;;;4831126;29;19905;-81
2022/08/25 13:57:29;;;;;;;3.70;2.30;;;33.10;48.00;;;;;;4832861;29;20011;-81
2022/08/25 14:00:08;;;;;;;3.95;2.22;;;33.50;47.70;;;;;;4842080;29;20088;-80
2022/08/25 14:02:50;;;;;;;2.65;2.40;;;33.70;48.00;;;;;;4823320;29;20097;-80
2022/08/25 14:05:48;;;;;;;3.15;2.38;;;33.80;48.40;;;;;;4844912;29;20019;-81
2022/08/25 14:08:37;;;;;;;3.53;2.40;;;33.70;48.00;;;;;;4840647;29;20070;-80
2022/08/25 14:11:12;;;;;;;5.38;2.50;;;33.40;47.60;;;;;;4836598;29;20022;-80
2022/08/25 14:13:40;;;;;;;3.75;2.45;;;33.40;47.90;;;;;;4844532;29;20317;-80
2022/08/25 14:16:07;;;;;;;2.50;2.30;;;33.00;47.10;;;;;;4843887;29;20030;-80
2022/08/25 14:18:33;;;;;;;3.53;2.20;;;32.80;47.60;;;;;;4843859;29;20086;-81
2022/08/25 14:21:02;;;;;;;3.88;2.45;;;32.60;47.10;;;;;;4838451;29;20024;-80
2022/08/25 14:23:29;;;;;;;3.33;2.42;;;32.60;48.00;;;;;;4848409;29;20105;-82
2022/08/25 14:25:56;;;;;;;2.95;2.67;;;33.00;48.90;;;;;;4839415;29;20015;-80
2022/08/25 14:28:28;;;;;;;2.97;2.20;;;32.90;47.50;;;;;;4837839;29;20021;-81
2022/08/25 14:30:58;;;;;;;4.00;2.42;;;33.00;48.40;;;;;;4841315;29;20050;-80
2022/08/25 14:33:32;;;;;;;2.67;2.45;;;33.20;48.90;;;;;;4831791;29;20045;-80
2022/08/25 14:36:01;;;;;;;3.50;2.70;;;33.00;48.60;;;;;;4833626;29;20027;-81
2022/08/25 14:38:26;;;;;;;;;;;33.40;50.00;;;;;;4835628;29;20103;-80
2022/08/25 14:40:52;;;;;;;4.10;2.33;;;33.40;48.90;;;;;;4849414;29;19909;-80
2022/08/25 14:43:18;;;;;;;2.65;2.38;;;33.20;48.70;;;;;;4840598;29;20045;-80
2022/08/25 14:45:46;;;;;;;4.80;2.40;;;33.40;48.80;;;;;;4834566;29;20072;-80
2022/08/25 14:48:28;;;;;;;6.18;2.60;;;32.90;48.60;;;;;;4845607;29;20093;-80
2022/08/25 14:50:56;;;;;;;4.70;2.45;;;32.70;49.00;;;;;;4845411;29;20041;-83
2022/08/25 14:53:22;;;;;;;4.13;2.50;;;32.50;48.40;;;;;;4846723;29;20022;-80